createdAt,value
2023-04-04T00:02:19.023Z,-1.31
2023-04-04T00:07:21.419Z,-1.37
2023-04-04T00:12:26.691Z,-1.43
2023-04-04T00:17:30.423Z,-1.55
2023-04-04T00:22:32.169Z,-1.63
2023-04-04T00:27:33.865Z,-1.66
2023-04-04T00:32:35.793Z,-1.67
2023-04-04T00:37:38.137Z,-1.72
2023-04-04T00:42:40.009Z,-1.79
2023-04-04T00:47:43.599Z,-1.86
2023-04-04T00:52:45.486Z,-1.86
2023-04-04T00:57:48.052Z,-1.87
2023-04-04T01:02:50.700Z,-1.87
2023-04-04T01:07:52.772Z,-1.90
2023-04-04T01:12:55.482Z,-1.90
2023-04-04T01:18:01.895Z,-1.91
2023-04-04T01:23:06.684Z,-2.00
2023-04-04T01:28:09.751Z,-2.10
2023-04-04T01:33:22.616Z,-2.19
2023-04-04T01:38:35.484Z,-2.28
2023-04-04T01:43:37.567Z,-2.38
2023-04-04T01:48:39.850Z,-2.46
2023-04-04T01:53:42.919Z,-2.53
2023-04-04T01:58:44.886Z,-2.59
2023-04-04T02:03:47.575Z,-2.66
2023-04-04T02:08:49.382Z,-2.77
2023-04-04T02:13:51.539Z,-2.83
2023-04-04T02:18:54.026Z,-2.87
2023-04-04T02:23:55.744Z,-2.93
2023-04-04T02:28:57.419Z,-3.01
2023-04-04T02:33:59.211Z,-3.09
2023-04-04T02:39:01.159Z,-3.13
2023-04-04T02:44:05.361Z,-3.13
2023-04-04T02:49:07.413Z,-3.12
2023-04-04T02:54:10.177Z,-3.10
2023-04-04T02:59:15.130Z,-3.10
2023-04-04T03:04:19.428Z,-3.07
2023-04-04T03:09:21.199Z,-3.06
2023-04-04T03:14:23.038Z,-3.10
2023-04-04T03:19:25.009Z,-3.22
2023-04-04T03:24:28.485Z,-3.31
2023-04-04T03:29:30.130Z,-3.35
2023-04-04T03:34:32.976Z,-3.40
2023-04-04T03:39:35.376Z,-3.48
2023-04-04T03:44:42.628Z,-3.56
2023-04-04T03:49:51.537Z,-3.55
2023-04-04T03:54:53.429Z,-3.58
2023-04-04T03:59:55.091Z,-3.60
2023-04-04T04:04:57.486Z,-3.64
2023-04-04T04:09:59.553Z,-3.64
2023-04-04T04:15:01.927Z,-3.63
2023-04-04T04:20:10.332Z,-3.66
2023-04-04T04:25:17.818Z,-3.70
2023-04-04T04:30:26.923Z,-3.67
2023-04-04T04:35:28.984Z,-3.60
2023-04-04T04:40:31.801Z,-3.52
2023-04-04T04:45:50.802Z,-3.37
2023-04-04T04:50:55.042Z,-3.18
2023-04-04T04:56:06.076Z,-2.99
2023-04-04T05:01:09.429Z,-2.83
2023-04-04T05:06:13.858Z,-2.71
2023-04-04T05:11:15.951Z,-2.59
2023-04-04T05:16:17.977Z,-2.45
2023-04-04T05:21:20.877Z,-2.34
2023-04-04T05:26:25.043Z,-2.24
2023-04-04T05:31:29.000Z,-2.07
2023-04-04T05:36:31.522Z,-2.14
2023-04-04T05:41:37.636Z,-1.87
2023-04-04T05:46:45.701Z,-1.76
2023-04-04T05:51:47.646Z,-1.65
2023-04-04T05:56:50.930Z,-1.48
2023-04-04T06:02:01.367Z,-1.38
2023-04-04T06:07:04.078Z,-1.36
2023-04-04T06:12:30.639Z,-1.38
2023-04-04T06:17:33.112Z,-1.44
2023-04-04T06:22:35.498Z,-1.39
2023-04-04T06:27:38.096Z,-1.39
2023-04-04T06:32:42.471Z,-1.44
2023-04-04T06:37:48.326Z,-1.45
2023-04-04T06:42:57.914Z,-1.35
2023-04-04T06:48:03.656Z,-1.22
2023-04-04T06:53:08.623Z,-1.12
2023-04-04T06:58:10.507Z,-1.10
2023-04-04T07:03:12.276Z,-1.05
2023-04-04T07:08:14.410Z,-0.95
2023-04-04T07:13:16.768Z,-0.85
2023-04-04T07:18:18.532Z,-0.71
2023-04-04T07:23:20.257Z,-0.65
2023-04-04T07:28:22.071Z,-0.53
2023-04-04T07:33:23.776Z,-0.34
2023-04-04T07:38:25.582Z,-0.07
2023-04-04T07:43:27.361Z,0.14
2023-04-04T07:48:29.051Z,0.30
2023-04-04T07:53:49.458Z,0.53
2023-04-04T07:58:51.171Z,0.69
2023-04-04T08:03:53.760Z,0.95
2023-04-04T08:08:55.545Z,1.36
2023-04-04T08:13:57.188Z,1.76
2023-04-04T08:19:00.058Z,1.87
2023-04-04T08:24:02.001Z,1.79
2023-04-04T08:29:03.911Z,1.84
2023-04-04T08:34:07.803Z,1.76
2023-04-04T08:39:09.717Z,2.10
2023-04-04T08:44:20.435Z,2.18
2023-04-04T08:49:24.044Z,2.39
2023-04-04T08:54:26.575Z,2.69
2023-04-04T08:59:28.855Z,2.85
2023-04-04T09:04:31.853Z,3.06
2023-04-04T09:09:34.292Z,3.20
2023-04-04T09:14:39.220Z,3.05
2023-04-04T09:19:40.889Z,2.94
2023-04-04T09:24:43.803Z,3.07
2023-04-04T09:29:45.716Z,3.04
2023-04-04T09:34:47.978Z,3.01
2023-04-04T09:39:49.804Z,3.03
2023-04-04T09:44:55.001Z,3.19
2023-04-04T09:50:01.373Z,3.29
2023-04-04T09:55:05.304Z,3.18
2023-04-04T10:00:09.263Z,3.28
2023-04-04T10:05:11.395Z,3.36
2023-04-04T10:10:13.962Z,3.32
2023-04-04T10:15:16.478Z,3.19
2023-04-04T10:20:19.126Z,3.56
2023-04-04T10:25:20.784Z,3.79
2023-04-04T10:30:22.495Z,3.66
2023-04-04T10:35:25.513Z,3.74
2023-04-04T10:40:33.246Z,3.85
2023-04-04T10:45:38.725Z,4.02
2023-04-04T10:50:41.896Z,4.35
2023-04-04T10:55:46.316Z,4.38
2023-04-04T11:00:54.951Z,4.44
2023-04-04T11:06:01.782Z,4.36
2023-04-04T11:11:09.637Z,4.39
2023-04-04T11:16:19.296Z,4.48
2023-04-04T11:21:24.881Z,4.28
2023-04-04T11:26:26.600Z,4.39
2023-04-04T11:31:34.781Z,4.42
2023-04-04T11:36:44.361Z,4.57
2023-04-04T11:41:53.423Z,4.42
2023-04-04T11:46:57.235Z,3.96
2023-04-04T11:51:58.962Z,3.76
2023-04-04T11:57:01.610Z,3.77
2023-04-04T12:02:09.110Z,3.58
2023-04-04T12:07:13.776Z,3.31
2023-04-04T12:12:16.472Z,3.25
2023-04-04T12:17:18.322Z,3.26
2023-04-04T12:22:20.995Z,3.15
2023-04-04T12:27:22.868Z,3.42
2023-04-04T12:32:24.778Z,3.88
2023-04-04T12:37:29.584Z,4.20
2023-04-04T12:42:32.005Z,4.26
2023-04-04T12:47:34.043Z,4.08
2023-04-04T12:52:39.669Z,4.03
2023-04-04T12:57:41.913Z,4.16
2023-04-04T13:02:46.630Z,4.04
2023-04-04T13:07:48.624Z,3.87
2023-04-04T13:13:01.090Z,3.66
2023-04-04T13:18:18.124Z,3.47
2023-04-04T13:23:21.514Z,3.35
2023-04-04T13:28:23.190Z,3.40
2023-04-04T13:33:24.889Z,3.50
2023-04-04T13:38:27.966Z,3.52
2023-04-04T13:43:29.689Z,3.35
2023-04-04T13:48:31.539Z,3.36
2023-04-04T13:53:33.237Z,3.29
2023-04-04T13:58:35.073Z,3.03
2023-04-04T14:03:37.324Z,2.68
2023-04-04T14:08:39.694Z,2.58
2023-04-04T14:13:41.838Z,2.92
2023-04-04T14:18:44.692Z,3.41
2023-04-04T14:23:47.199Z,3.63
2023-04-04T14:28:51.863Z,3.50
2023-04-04T14:33:54.557Z,3.36
2023-04-04T14:38:56.830Z,3.33
2023-04-04T14:43:59.294Z,3.13
2023-04-04T14:49:03.062Z,2.77
2023-04-04T14:54:05.186Z,2.60
2023-04-04T14:59:08.187Z,2.43
2023-04-04T15:04:11.479Z,2.28
2023-04-04T15:09:13.321Z,2.14
2023-04-04T15:14:14.967Z,1.98
2023-04-04T15:19:16.687Z,1.86
2023-04-04T15:24:18.454Z,1.83
2023-04-04T15:29:20.374Z,1.72
2023-04-04T15:34:22.035Z,1.65
2023-04-04T15:39:23.789Z,1.58
2023-04-04T15:44:25.758Z,1.53
2023-04-04T15:49:28.313Z,1.34
2023-04-04T15:54:31.985Z,1.36
2023-04-04T15:59:34.412Z,1.31
2023-04-04T16:04:36.061Z,1.07
2023-04-04T16:09:37.723Z,1.14
2023-04-04T16:14:39.347Z,1.22
2023-04-04T16:19:41.374Z,1.16
2023-04-04T16:24:43.026Z,1.05
2023-04-04T16:29:44.787Z,0.91
2023-04-04T16:34:46.796Z,0.82
2023-04-04T16:39:48.998Z,0.74
2023-04-04T16:44:50.861Z,0.69
2023-04-04T16:49:52.557Z,0.63
2023-04-04T16:54:55.000Z,0.55
2023-04-04T16:59:57.265Z,0.40
2023-04-04T17:04:58.978Z,0.29
2023-04-04T17:10:01.128Z,0.19
2023-04-04T17:15:04.703Z,0.11
2023-04-04T17:20:07.378Z,0.04
2023-04-04T17:25:09.491Z,-0.03
2023-04-04T17:30:12.854Z,-0.11
2023-04-04T17:35:17.674Z,-0.21
2023-04-04T17:40:19.644Z,-0.39
2023-04-04T17:45:21.389Z,-0.65
2023-04-04T17:50:23.088Z,-0.94
2023-04-04T17:55:24.951Z,-1.20
2023-04-04T18:00:27.253Z,-1.42
2023-04-04T18:05:29.209Z,-1.63
2023-04-04T18:10:31.660Z,-1.83
2023-04-04T18:15:33.741Z,-2.00
2023-04-04T18:20:36.555Z,-2.20
2023-04-04T18:25:38.390Z,-2.42
2023-04-04T18:30:40.266Z,-2.63
2023-04-04T18:35:42.036Z,-2.77
2023-04-04T18:40:46.497Z,-2.90
2023-04-04T18:45:48.612Z,-3.05
2023-04-04T18:50:51.585Z,-3.18
2023-04-04T18:55:53.542Z,-3.37
2023-04-04T19:00:58.580Z,-3.41
2023-04-04T19:06:01.597Z,-3.45
2023-04-04T19:11:03.308Z,-3.48
2023-04-04T19:16:05.651Z,-3.49
2023-04-04T19:21:08.826Z,-3.46
2023-04-04T19:26:11.843Z,-3.40
2023-04-04T19:31:21.617Z,-3.38
2023-04-04T19:36:23.933Z,-3.38
2023-04-04T19:41:39.961Z,-3.42
2023-04-04T19:46:41.658Z,-3.52
2023-04-04T19:51:48.933Z,-3.65
2023-04-04T19:56:50.810Z,-3.79
2023-04-04T20:02:00.251Z,-3.90
2023-04-04T20:07:02.696Z,-4.02
2023-04-04T20:12:07.237Z,-4.17
2023-04-04T20:17:09.657Z,-4.31
2023-04-04T20:22:11.617Z,-4.48
2023-04-04T20:27:23.662Z,-4.63
2023-04-04T20:32:25.298Z,-4.77
2023-04-04T20:37:28.758Z,-4.91
2023-04-04T20:42:37.887Z,-5.02
2023-04-04T20:47:51.630Z,-5.06
2023-04-04T20:53:02.055Z,-5.00
2023-04-04T20:58:23.319Z,-4.87
2023-04-04T21:03:25.171Z,-4.77
2023-04-04T21:08:29.459Z,-4.74
2023-04-04T21:13:41.710Z,-4.80
2023-04-04T21:18:43.953Z,-4.92
2023-04-04T21:23:47.074Z,-5.08
2023-04-04T21:28:49.859Z,-5.24
2023-04-04T21:33:56.149Z,-5.43
2023-04-04T21:39:00.734Z,-5.62
2023-04-04T21:44:10.270Z,-5.78
2023-04-04T21:49:12.783Z,-5.88
2023-04-04T21:54:15.443Z,-5.89
2023-04-04T21:59:18.705Z,-5.76
2023-04-04T22:04:20.390Z,-5.61
2023-04-04T22:09:25.877Z,-5.54
2023-04-04T22:14:30.501Z,-5.58
2023-04-04T22:19:43.172Z,-5.71
2023-04-04T22:24:44.918Z,-5.88
2023-04-04T22:29:46.706Z,-6.05
2023-04-04T22:34:48.938Z,-6.16
2023-04-04T22:39:50.816Z,-6.24
2023-04-04T22:44:52.573Z,-6.24
2023-04-04T22:49:56.312Z,-6.13
2023-04-04T22:54:59.648Z,-5.99
2023-04-04T23:00:01.543Z,-5.90
2023-04-04T23:05:04.025Z,-5.92
2023-04-04T23:10:12.790Z,-6.00
2023-04-04T23:15:19.270Z,-6.10
2023-04-04T23:20:21.117Z,-6.25
2023-04-04T23:25:28.429Z,-6.42
2023-04-04T23:30:30.271Z,-6.54
2023-04-04T23:35:37.775Z,-6.55
2023-04-04T23:40:41.021Z,-6.39
2023-04-04T23:45:43.525Z,-6.22
2023-04-04T23:50:47.042Z,-6.14
2023-04-04T23:55:49.178Z,-6.15
